Latest Weather Observations for Cape Borda

IDS60801

Issued at 2:32 pm CDT Monday 22 December 2014 (issued every 30 minutes, with the page automatically refreshed every 10 minutes)

About weather observations | Map of weather stations | Latest weather observations for SA | Other Formats
Station Details ID: 022823 Name: CAPE BORDA Lat: -35.75 Lon: 136.60 Height: 158.0 m
Data from the previous 72 hours. | See also: Recent months at Cape Borda
Date/Time
CDT
Temp
°C
App
Temp
°C
Dew
Point
Rel
Hum
%
Delta-T
°C
Wind Press
QNH
hPa
Press
MSL
hPa
Rain
since 9 am
mm
Dir
 
Spd
km/h
Gust
km/h
Spd
kts
Gust
kts
22/02:30pm 17.5 16.3 16.0 91 0.9 E 17 24 9 13 1007.8 - 5.2
22/02:00pm 17.7 15.3 16.5 93 0.7 ENE 24 33 13 18 1008.2 - 5.2
22/01:30pm 17.9 16.5 16.9 94 0.6 SE 20 26 11 14 1008.7 - 5.2
22/01:00pm 17.2 16.3 16.9 98 0.2 ESE 17 22 9 12 1009.6 - 5.0
22/12:30pm 16.6 14.8 16.1 97 0.3 ESE 20 30 11 16 1009.7 - 5.0
22/12:00pm 16.1 14.1 15.6 97 0.3 SE 20 24 11 13 1009.8 1009.5 4.2
22/11:30am 16.0 13.3 15.5 97 0.3 SE 24 30 13 16 1009.8 - 3.2
22/11:00am 16.1 12.9 15.4 96 0.4 SSE 26 35 14 19 1009.9 - 3.0
22/10:30am 16.7 15.9 15.2 91 0.9 SSE 13 19 7 10 1010.8 - 1.0
22/10:00am 17.0 13.4 14.2 83 1.6 SE 26 35 14 19 1010.0 - 0.0
22/09:30am 17.2 12.4 14.1 82 1.8 SSE 32 43 17 23 1009.1 - 0.0
22/09:00am 17.4 13.1 13.2 76 2.4 SSE 28 39 15 21 1008.9 1008.6 0.4
22/08:30am 17.6 13.9 12.6 72 2.8 SE 24 35 13 19 1008.7 - 0.4
22/08:00am 17.4 13.1 12.0 70 3.0 SE 26 33 14 18 1008.6 - 0.4
22/07:30am 17.5 12.6 11.3 67 3.4 SE 28 39 15 21 1008.0 - 0.4
22/07:00am 17.3 11.5 10.8 65 3.5 SE 32 43 17 23 1007.1 - 0.4
22/06:30am 16.5 10.8 11.8 74 2.6 SE 33 46 18 25 1007.1 - 0.4
22/06:15am 16.4 10.9 11.9 75 2.5 SE 32 50 17 27 1007.2 - 0.4
22/06:00am 16.1 10.7 12.1 77 2.2 SE 32 43 17 23 1007.1 1006.9 0.4
22/05:30am 16.0 10.7 11.2 73 2.6 SE 30 41 16 22 1007.5 - 0.4
22/05:00am 15.4 10.4 11.1 75 2.3 SSE 28 35 15 19 1007.8 - 0.4
22/04:30am 15.5 12.1 10.4 71 2.7 ESE 19 35 10 19 1008.0 - 0.4
22/04:00am 15.7 10.4 9.8 68 3.1 SE 28 39 15 21 1008.4 - 0.0
22/03:30am 16.8 13.1 10.0 64 3.6 E 20 26 11 14 1009.1 - 0.0
22/03:00am 16.7 11.5 10.3 66 3.4 SE 28 41 15 22 1009.0 1008.7 0.0
22/02:30am 17.1 11.3 9.3 60 4.1 SE 30 43 16 23 1008.9 - 0.0
22/02:01am 17.1 10.7 8.6 57 4.4 SE 32 50 17 27 1008.4 - 0.0
22/02:00am 17.0 10.6 8.7 58 4.3 SE 32 46 17 25 1008.6 - 0.0
22/01:30am 16.5 9.4 9.7 64 3.6 SE 37 54 20 29 1008.6 - 0.0
22/01:04am 15.9 9.6 11.1 73 2.6 SE 35 54 19 29 1008.9 - 0.0
22/01:00am 15.9 9.3 11.3 74 2.5 SE 37 50 20 27 1008.9 - 0.0
22/12:30am 15.7 9.4 12.3 80 1.9 SE 37 52 20 28 1009.9 - 0.0
22/12:00am 15.8 9.7 11.8 77 2.2 SE 35 52 19 28 1010.5 1010.2 0.0
 
Date/Time
CDT
Temp
°C
App
Temp
°C
Dew
Point
Rel
Hum
%
Delta-T
°C
Wind Press
QNH
hPa
Press
MSL
hPa
Rain
since 9 am
mm
Dir
 
Spd
km/h
Gust
km/h
Spd
kts
Gust
kts
21/11:30pm 15.6 9.3 12.3 81 1.8 SE 37 54 20 29 1010.6 - 0.0
21/11:00pm 15.8 9.0 12.0 78 2.1 SE 39 50 21 27 1011.3 - 0.0
21/10:30pm 15.9 10.2 11.7 76 2.3 SE 33 46 18 25 1012.3 - 0.0
21/10:00pm 15.8 9.8 12.2 79 2.0 SE 35 48 19 26 1012.6 - 0.0
21/09:30pm 15.8 9.2 12.6 81 1.8 SSE 39 54 21 29 1012.6 - 0.0
21/09:00pm 16.0 9.4 12.6 80 1.9 SSE 39 54 21 29 1012.1 1011.9 0.0
21/08:30pm 16.4 10.1 12.4 77 2.2 SSE 37 56 20 30 1011.5 - 0.0
21/08:04pm 16.6 10.0 12.5 77 2.3 SSE 39 59 21 32 1010.5 - 0.0
21/08:00pm 16.7 10.5 12.6 77 2.3 SSE 37 50 20 27 1010.7 - 0.0
21/07:38pm 16.9 11.1 12.8 77 2.3 SSE 35 54 19 29 1010.5 - 0.0
21/07:30pm 17.1 11.3 12.8 76 2.4 SE 35 48 19 26 1010.4 - 0.0
21/07:19pm 17.3 11.6 12.9 75 2.5 SE 35 56 19 30 1010.1 - 0.0
21/07:00pm 18.0 12.2 12.7 71 3.0 SE 35 50 19 27 1009.8 - 0.0
21/06:32pm 19.5 13.2 12.2 62 4.1 SE 37 56 20 30 1009.6 - 0.0
21/06:30pm 19.5 12.7 12.0 62 4.2 SE 39 52 21 28 1009.6 - 0.0
21/06:00pm 20.2 13.9 11.2 56 5.0 SE 35 50 19 27 1009.2 1008.9 0.0
21/05:47pm 20.0 14.4 11.6 58 4.7 SE 32 50 17 27 1009.4 - 0.0
21/05:30pm 20.3 14.6 11.9 58 4.7 SE 33 46 18 25 1009.5 - 0.0
21/05:00pm 21.3 15.8 12.3 56 5.1 SE 33 46 18 25 1009.5 - 0.0
21/04:30pm 21.3 16.2 13.2 60 4.7 SE 32 46 17 25 1010.2 - 0.0
21/04:00pm 20.9 15.6 13.1 61 4.5 SE 33 48 18 26 1010.3 - 0.0
21/03:30pm 21.1 15.7 12.7 58 4.8 SE 33 44 18 24 1010.7 - 0.0
21/03:00pm 22.7 17.4 12.6 53 5.8 SE 32 43 17 23 1010.9 1010.7 0.0
21/02:30pm 22.8 17.3 11.7 49 6.3 SE 32 43 17 23 1011.4 - 0.0
21/02:00pm 22.9 17.1 11.6 49 6.4 SE 33 48 18 26 1011.4 - 0.0
21/01:30pm 22.7 16.7 12.2 51 6.0 SE 35 54 19 29 1011.9 - 0.0
21/01:29pm 23.0 17.4 12.1 50 6.2 SE 33 54 18 29 1011.9 - 0.0
21/01:00pm 24.0 19.3 13.2 50 6.3 SSE 30 39 16 21 1012.3 - 0.0
21/12:30pm 23.7 19.0 13.2 51 6.1 SE 30 43 16 23 1012.2 - 0.0
21/12:00pm 23.1 18.3 13.9 56 5.4 SSE 32 41 17 22 1012.3 1012.1 0.0
21/11:30am 24.1 20.0 13.8 52 6.1 SSE 28 37 15 20 1012.6 - 0.0
21/11:00am 24.3 20.6 14.0 52 6.1 SSE 26 33 14 18 1012.5 - 0.0
21/10:30am 24.2 20.9 14.1 53 6.0 SSE 24 32 13 17 1012.5 - 0.0
21/10:00am 23.0 19.7 14.0 57 5.3 SSE 24 30 13 16 1012.6 - 0.0
21/09:30am 22.3 19.5 13.3 56 5.2 SSE 20 28 11 15 1012.7 - 0.0
21/09:00am 22.8 21.2 12.7 53 5.8 S 13 19 7 10 1012.4 1012.2 0.0
21/08:30am 22.3 20.7 11.7 51 6.0 SSE 11 13 6 7 1012.2 - 0.0
21/08:00am 21.4 20.3 11.8 54 5.4 SSE 9 11 5 6 1011.7 - 0.0
21/07:30am 19.0 17.1 10.5 58 4.6 S 11 13 6 7 1011.5 - 0.0
21/07:00am 20.0 17.8 10.7 55 5.1 E 13 19 7 10 1010.9 - 0.0
21/06:30am 19.1 15.3 9.8 55 5.0 ENE 20 24 11 13 1010.6 - 0.0
21/06:00am 18.5 14.3 9.7 56 4.7 ENE 22 30 12 16 1010.5 1010.2 0.0
21/05:30am 18.4 14.5 9.3 55 4.8 ENE 20 28 11 15 1010.4 - 0.0
21/05:00am 18.0 14.1 9.3 56 4.6 E 20 28 11 15 1010.5 - 0.0
21/04:30am 17.7 13.9 9.8 60 4.2 ENE 20 26 11 14 1010.8 - 0.0
21/04:00am 17.7 13.4 9.4 58 4.4 ENE 22 30 12 16 1010.7 - 0.0
21/03:30am 16.8 12.4 7.5 54 4.7 ENE 20 24 11 13 1010.8 - 0.0
21/03:00am 16.0 11.4 6.5 53 4.7 E 20 22 11 12 1011.3 1011.1 0.0
21/02:30am 15.3 10.3 4.5 48 5.1 E 20 26 11 14 1011.7 - 0.0
21/02:00am 15.2 10.0 3.5 45 5.4 ESE 20 24 11 13 1012.0 - 0.0
21/01:30am 14.4 9.6 5.6 55 4.2 ESE 20 26 11 14 1012.2 - 0.0
21/01:00am 14.2 9.0 5.6 56 4.1 ESE 22 26 12 14 1012.7 - 0.0
21/12:30am 14.3 9.1 5.5 55 4.2 ESE 22 26 12 14 1013.1 - 0.0
21/12:00am 14.3 9.7 6.5 59 3.8 ESE 20 24 11 13 1013.4 1013.2 0.0
 
Date/Time
CDT
Temp
°C
App
Temp
°C
Dew
Point
Rel
Hum
%
Delta-T
°C
Wind Press
QNH
hPa
Press
MSL
hPa
Rain
since 9 am
mm
Dir
 
Spd
km/h
Gust
km/h
Spd
kts
Gust
kts
20/11:30pm 14.3 10.2 8.6 68 2.9 ESE 20 24 11 13 1013.1 - 0.0
20/11:00pm 14.4 10.5 9.6 73 2.5 ESE 20 26 11 14 1013.5 - 0.0
20/10:30pm 14.7 10.9 11.0 78 2.0 ESE 22 28 12 15 1013.7 - 0.0
20/10:00pm 15.2 11.7 10.9 75 2.3 ESE 20 26 11 14 1014.0 - 0.0
20/09:30pm 16.2 12.7 11.0 71 2.8 ESE 20 28 11 15 1014.4 - 0.0
20/09:00pm 17.1 14.3 11.2 68 3.2 ESE 17 24 9 13 1014.6 1014.3 0.0
20/08:30pm 18.3 16.3 11.6 65 3.7 SE 13 19 7 10 1014.7 - 0.0
20/08:00pm 19.8 16.7 11.5 58 4.6 ESE 19 26 10 14 1014.4 - 0.0
20/07:30pm 21.3 19.7 10.3 49 6.0 SE 9 13 5 7 1014.6 - 0.0
20/07:00pm 20.2 18.6 8.6 47 6.1 NNE 7 13 4 7 1014.7 - 0.0
20/06:30pm 20.8 17.5 8.2 44 6.6 NE 15 20 8 11 1014.6 - 0.0
20/06:00pm 21.2 18.3 9.8 48 6.2 NE 15 20 8 11 1014.5 1014.2 0.0
20/05:30pm 20.5 18.0 10.9 54 5.3 NE 15 20 8 11 1014.7 - 0.0
20/05:00pm 20.8 18.2 10.8 52 5.5 N 15 20 8 11 1015.3 - 0.0
20/04:30pm 19.6 17.3 11.9 61 4.3 N 15 20 8 11 1015.6 - 0.0
20/04:00pm 19.9 18.0 11.8 59 4.5 NW 13 17 7 9 1015.8 - 0.0
20/03:30pm 19.3 17.0 11.7 61 4.2 WNW 15 20 8 11 1016.1 - 0.0
20/03:00pm 19.1 16.7 11.5 61 4.2 W 15 20 8 11 1016.7 1016.5 0.0
20/02:30pm 18.7 15.9 11.2 61 4.1 WNW 17 22 9 12 1017.2 - 0.0
20/02:00pm 19.1 16.9 10.9 59 4.5 W 13 20 7 11 1017.5 - 0.0
20/01:30pm 18.6 16.1 10.9 61 4.2 W 15 22 8 12 1018.0 - 0.0
20/01:00pm 18.7 16.2 11.0 61 4.2 W 15 22 8 12 1018.2 - 0.0
20/12:30pm 18.8 15.9 10.9 60 4.3 W 17 24 9 13 1018.5 - 0.0
20/12:00pm 18.3 15.5 10.1 59 4.4 W 15 20 8 11 1018.9 1018.7 0.0
20/11:30am 17.6 14.8 10.1 61 4.0 W 15 20 8 11 1019.2 - 0.0
20/11:00am 17.8 15.4 10.1 60 4.1 N 13 17 7 9 1019.3 - 0.0
20/10:30am 17.3 15.2 9.9 62 3.9 N 11 17 6 9 1019.4 - 0.0
20/10:00am 16.8 14.7 9.6 62 3.8 N 11 15 6 8 1019.7 - 0.0
20/09:30am 16.9 14.5 9.9 63 3.7 N 13 19 7 10 1020.0 - 0.0
20/09:00am 16.4 14.0 10.0 66 3.4 N 13 17 7 9 1020.2 1020.0 0.0
20/08:30am 16.3 14.9 9.4 63 3.6 ESE 7 11 4 6 1019.9 - 0.0
20/08:00am 15.4 13.8 10.3 71 2.7 ESE 9 13 5 7 1019.6 - 0.0
20/07:30am 13.6 12.1 10.6 82 1.6 ESE 9 11 5 6 1019.3 - 0.0
20/07:00am 11.7 9.2 9.7 87 1.0 ESE 13 13 7 7 1019.2 - 0.0
20/06:30am 10.7 8.0 9.1 90 0.8 ESE 13 15 7 8 1019.1 - 0.0
20/06:00am 10.6 8.0 9.2 91 0.7 ESE 13 13 7 7 1019.1 1018.9 0.0
20/05:30am 10.3 7.6 8.9 91 0.7 ESE 13 15 7 8 1019.0 - 0.0
20/05:00am 10.1 7.4 8.9 92 0.6 SE 13 15 7 8 1018.8 - 0.0
20/04:30am 10.0 6.9 8.8 92 0.6 SE 15 17 8 9 1018.4 - 0.0
20/04:00am 10.1 7.0 8.7 91 0.7 ESE 15 17 8 9 1018.4 - 0.0
20/03:30am 10.1 6.9 8.5 90 0.8 ESE 15 17 8 9 1018.3 - 0.0
20/03:00am 10.3 6.8 8.7 90 0.8 ESE 17 17 9 9 1018.5 1018.3 0.0
20/02:30am 10.3 6.8 8.7 90 0.8 SE 17 17 9 9 1018.7 - 0.0
20/02:00am 10.6 7.1 8.6 87 1.0 SE 17 17 9 9 1019.2 - 0.0
20/01:30am 11.1 8.0 8.7 85 1.2 SE 15 17 8 9 1019.8 - 0.0
20/01:00am 11.3 7.8 8.9 85 1.2 SE 17 19 9 10 1020.1 - 0.0
20/12:30am 11.7 8.2 8.9 83 1.4 SE 17 20 9 11 1020.4 - 0.0
20/12:00am 12.1 8.6 8.9 81 1.6 SSE 17 20 9 11 1020.6 1020.4 0.0
 
Date/Time
CDT
Temp
°C
App
Temp
°C
Dew
Point
Rel
Hum
%
Delta-T
°C
Wind Press
QNH
hPa
Press
MSL
hPa
Rain
since 9 am
mm
Dir
 
Spd
km/h
Gust
km/h
Spd
kts
Gust
kts
19/11:30pm 12.3 8.5 8.9 80 1.7 SSE 19 20 10 11 1020.9 - 0.0
19/11:00pm 12.3 8.8 8.9 80 1.7 SSE 17 24 9 13 1021.1 - 0.0
19/10:30pm 11.8 8.3 8.8 82 1.5 SSE 17 19 9 10 1021.2 - 0.0
19/10:00pm 12.3 8.7 8.5 77 1.9 S 17 20 9 11 1021.3 - 0.0
19/09:30pm 12.6 8.6 8.4 75 2.1 S 19 20 10 11 1021.0 - 0.0
19/09:00pm 13.5 9.5 8.1 70 2.7 S 19 20 10 11 1021.0 1020.7 0.0
19/08:30pm 14.6 11.0 8.2 65 3.2 S 17 24 9 13 1021.1 - 0.0
19/08:00pm 15.7 11.7 8.2 61 3.8 S 19 24 10 13 1021.0 - 0.0
19/07:30pm 16.4 11.9 8.4 59 4.1 SSW 22 32 12 17 1021.1 - 0.0
19/07:00pm 16.9 11.9 8.1 56 4.5 SW 24 32 13 17 1021.0 - 0.0
19/06:30pm 18.0 13.5 8.5 53 4.9 SW 22 32 12 17 1021.1 - 0.0
19/06:00pm 17.8 13.3 8.5 54 4.8 SW 22 30 12 16 1020.9 1020.6 0.0
19/05:30pm 18.1 13.3 8.9 55 4.8 WSW 24 32 13 17 1020.8 - 0.0
19/05:00pm 18.6 13.7 8.6 52 5.2 WSW 24 35 13 19 1020.9 - 0.0
19/04:30pm 17.8 12.9 8.3 53 4.9 SW 24 32 13 17 1021.0 - 0.0
19/04:00pm 18.6 14.0 8.1 50 5.4 SW 22 32 12 17 1021.1 - 0.0
19/03:30pm 18.6 14.5 8.6 52 5.2 WSW 20 30 11 16 1021.3 - 0.0
19/03:00pm 19.2 14.7 8.5 50 5.6 W 22 32 12 17 1021.3 1021.0 0.0

Other Formats:

Comma delimited format used in spreadsheet applications
http://www.bom.gov.au/fwo/IDS60801/IDS60801.95805.axf

JavaScript Object Notation format (JSON) in row-major order
http://www.bom.gov.au/fwo/IDS60801/IDS60801.95805.json